WAH weather

Harry Stern Airport
Wahpeton, North Dakota, United States

Public forecast

Using degrees Fahrenheit for public forecast. Weather courtesy of forecast.io.

Current aviation weather report (METAR) for Harry Stern Airport

Retrieved 2020/02/28 02:35 UTC (9 minutes ago):

KBWP 280235Z AUTO 12003KT 10SM M08/M11 A3009 RMK AO1

Closest aviation forecast (TAF) to Harry Stern Airport

Forecast is more than 6 hours old.

Closest forecast is Hector International Airport, 41.5 nm (76.9 km) NNW. Retrieved 2020/02/27 18:39 UTC (8 hours ago):

TAF KFAR 271736Z 2718/2818 VRB02KT 3SM -SN BR OVC040 FM272200 VRB04KT P6SM OVC028